createdAt,value
2023-01-19T00:00:49.684Z,19.70
2023-01-19T00:03:17.830Z,21.80
2023-01-19T00:05:45.190Z,18.55
2023-01-19T00:08:15.167Z,15.70
2023-01-19T00:10:44.094Z,19.73
2023-01-19T00:13:10.859Z,17.98
2023-01-19T00:15:37.640Z,24.50
2023-01-19T00:18:04.446Z,18.95
2023-01-19T00:20:32.768Z,18.35
2023-01-19T00:23:00.069Z,24.23
2023-01-19T00:25:27.193Z,24.25
2023-01-19T00:27:53.924Z,16.02
2023-01-19T00:30:20.741Z,23.02
2023-01-19T00:32:47.415Z,20.50
2023-01-19T00:35:14.175Z,19.25
2023-01-19T00:37:40.936Z,22.90
2023-01-19T00:40:08.749Z,17.02
2023-01-19T00:42:41.310Z,22.48
2023-01-19T00:45:10.100Z,19.75
2023-01-19T00:47:37.171Z,23.30
2023-01-19T00:50:04.081Z,18.83
2023-01-19T00:52:30.781Z,18.75
2023-01-19T00:54:57.478Z,22.70
2023-01-19T00:57:24.153Z,20.20
2023-01-19T00:59:50.864Z,20.92
2023-01-19T01:02:17.748Z,24.77
2023-01-19T01:04:44.520Z,26.17
2023-01-19T01:07:11.206Z,20.13
2023-01-19T01:09:37.891Z,25.38
2023-01-19T01:12:06.046Z,19.63
2023-01-19T01:14:32.949Z,22.08
2023-01-19T01:17:00.562Z,23.55
2023-01-19T01:19:27.418Z,23.95
2023-01-19T01:21:55.448Z,20.95
2023-01-19T01:24:22.860Z,21.10
2023-01-19T01:26:49.567Z,19.35
2023-01-19T01:29:16.330Z,20.45
2023-01-19T01:31:43.047Z,20.42
2023-01-19T01:34:09.759Z,18.10
2023-01-19T01:36:36.580Z,19.52
2023-01-19T01:39:04.201Z,22.23
2023-01-19T01:41:32.301Z,15.30
2023-01-19T01:44:01.597Z,20.63
2023-01-19T01:46:30.979Z,18.35
2023-01-19T01:48:57.599Z,20.80
2023-01-19T01:51:41.850Z,23.88
2023-01-19T01:54:20.909Z,16.27
2023-01-19T01:56:49.972Z,19.70
2023-01-19T01:59:39.871Z,23.25
2023-01-19T02:02:41.760Z,15.82
2023-01-19T02:05:12.928Z,19.58
2023-01-19T02:08:19.668Z,16.92
2023-01-19T02:11:06.069Z,20.55
2023-01-19T02:16:08.639Z,17.60
2023-01-19T02:18:36.392Z,17.88
2023-01-19T02:21:14.071Z,17.13
2023-01-19T02:23:44.980Z,20.60
2023-01-19T02:26:16.124Z,19.75
2023-01-19T02:29:02.404Z,18.33
2023-01-19T02:31:31.227Z,21.33
2023-01-19T02:33:59.562Z,19.85
2023-01-19T02:36:39.284Z,18.15
2023-01-19T02:39:08.525Z,22.27
2023-01-19T02:41:41.448Z,23.00
2023-01-19T02:44:10.421Z,19.73
2023-01-19T02:46:38.428Z,21.05
2023-01-19T02:49:05.147Z,19.70
2023-01-19T02:51:32.194Z,20.25
2023-01-19T02:54:05.001Z,23.23
2023-01-19T02:56:56.117Z,21.58
2023-01-19T02:59:41.689Z,22.85
2023-01-19T03:02:28.886Z,17.07
2023-01-19T03:05:05.200Z,23.25
2023-01-19T03:08:08.607Z,16.65
2023-01-19T03:10:41.151Z,20.98
2023-01-19T03:13:19.629Z,21.33
2023-01-19T03:16:05.441Z,23.10
2023-01-19T03:18:35.965Z,19.98
2023-01-19T03:21:07.119Z,24.52
2023-01-19T03:23:36.979Z,21.13
2023-01-19T03:26:05.908Z,21.38
2023-01-19T03:28:34.434Z,24.42
2023-01-19T03:31:19.175Z,22.40
2023-01-19T03:33:50.948Z,27.83
2023-01-19T03:36:35.474Z,19.83
2023-01-19T03:39:05.271Z,21.85
2023-01-19T03:41:34.329Z,25.02
2023-01-19T03:44:01.811Z,25.67
2023-01-19T03:46:30.473Z,22.90
2023-01-19T03:48:58.370Z,25.38
2023-01-19T03:51:25.441Z,26.73
2023-01-19T03:53:52.278Z,21.13
2023-01-19T03:56:24.449Z,22.95
2023-01-19T03:58:51.638Z,25.95
2023-01-19T04:01:22.797Z,22.83
2023-01-19T04:03:50.457Z,21.00
2023-01-19T04:06:17.671Z,30.27
2023-01-19T04:08:44.477Z,21.80
2023-01-19T04:11:11.741Z,24.27
2023-01-19T04:13:38.447Z,20.92
2023-01-19T04:16:06.548Z,22.00
2023-01-19T04:18:34.897Z,18.67
2023-01-19T04:21:03.237Z,21.30
2023-01-19T04:23:30.195Z,21.42
2023-01-19T04:26:07.567Z,22.27
2023-01-19T04:28:36.939Z,21.10
2023-01-19T04:31:04.857Z,20.25
2023-01-19T04:33:31.549Z,24.27
2023-01-19T04:35:58.267Z,20.23
2023-01-19T04:38:26.231Z,24.10
2023-01-19T04:40:53.931Z,28.02
2023-01-19T04:43:21.942Z,25.30
2023-01-19T04:45:49.204Z,23.77
2023-01-19T04:48:18.843Z,24.27
2023-01-19T04:50:46.252Z,30.33
2023-01-19T04:53:13.701Z,21.88
2023-01-19T04:55:40.732Z,24.27
2023-01-19T04:58:07.637Z,24.33
2023-01-19T05:00:34.375Z,24.98
2023-01-19T05:03:01.828Z,23.23
2023-01-19T05:05:29.267Z,23.13
2023-01-19T05:07:55.932Z,28.38
2023-01-19T05:10:23.705Z,24.85
2023-01-19T05:12:51.163Z,25.48
2023-01-19T05:15:17.970Z,42.15
2023-01-19T05:17:44.798Z,23.45
2023-01-19T05:20:15.733Z,24.35
2023-01-19T05:22:43.246Z,28.17
2023-01-19T05:25:10.212Z,26.20
2023-01-19T05:27:38.042Z,22.70
2023-01-19T05:30:05.692Z,26.00
2023-01-19T05:32:32.928Z,24.80
2023-01-19T05:34:59.828Z,23.88
2023-01-19T05:37:26.603Z,25.58
2023-01-19T05:39:53.974Z,27.65
2023-01-19T05:42:20.927Z,28.52
2023-01-19T05:44:47.616Z,24.63
2023-01-19T05:47:14.293Z,28.63
2023-01-19T05:49:40.933Z,31.58
2023-01-19T05:52:07.690Z,30.55
2023-01-19T05:54:34.556Z,27.00
2023-01-19T05:57:02.391Z,27.17
2023-01-19T05:59:29.045Z,30.67
2023-01-19T06:01:55.921Z,25.75
2023-01-19T06:04:22.750Z,27.08
2023-01-19T06:06:49.739Z,21.73
2023-01-19T06:09:17.280Z,35.58
2023-01-19T06:11:45.080Z,29.05
2023-01-19T06:14:12.096Z,23.33
2023-01-19T06:16:38.839Z,27.75
2023-01-19T06:19:05.665Z,32.38
2023-01-19T06:21:32.528Z,29.60
2023-01-19T06:23:59.182Z,32.80
2023-01-19T06:26:26.283Z,34.17
2023-01-19T06:28:53.231Z,27.38
2023-01-19T06:31:19.978Z,24.60
2023-01-19T06:33:47.165Z,24.58
2023-01-19T06:36:13.854Z,23.88
2023-01-19T06:38:40.586Z,29.60
2023-01-19T06:41:07.232Z,28.00
2023-01-19T06:43:34.034Z,27.27
2023-01-19T06:46:00.866Z,27.75
2023-01-19T06:48:27.927Z,27.48
2023-01-19T06:50:55.282Z,28.20
2023-01-19T06:53:22.728Z,30.63
2023-01-19T06:55:49.394Z,27.00
2023-01-19T06:58:16.593Z,34.08
2023-01-19T07:00:43.382Z,26.40
2023-01-19T07:03:20.488Z,31.00
2023-01-19T07:05:49.821Z,27.77
2023-01-19T07:08:16.479Z,30.33
2023-01-19T07:11:25.599Z,32.90
2023-01-19T07:13:30.008Z,32.08
2023-01-19T07:15:56.885Z,31.13
2023-01-19T07:18:23.575Z,37.10
2023-01-19T07:20:50.362Z,31.48
2023-01-19T07:23:17.037Z,30.63
2023-01-19T07:25:46.845Z,30.98
2023-01-19T07:28:15.672Z,31.98
2023-01-19T07:30:43.663Z,30.60
2023-01-19T07:33:10.433Z,24.13
2023-01-19T07:35:37.212Z,25.38
2023-01-19T07:38:04.352Z,28.92
2023-01-19T07:40:31.065Z,28.40
2023-01-19T07:42:57.718Z,32.67
2023-01-19T07:45:24.362Z,34.53
2023-01-19T07:47:51.682Z,31.27
2023-01-19T07:50:21.338Z,34.65
2023-01-19T07:52:50.690Z,40.60
2023-01-19T07:55:17.523Z,52.90
2023-01-19T07:57:44.286Z,30.38
2023-01-19T08:00:11.571Z,27.27
2023-01-19T08:02:38.345Z,28.23
2023-01-19T08:05:05.351Z,26.40
2023-01-19T08:07:33.520Z,29.90
2023-01-19T08:10:00.174Z,28.63
2023-01-19T08:12:26.907Z,28.67
2023-01-19T08:14:53.750Z,27.67
2023-01-19T08:17:20.492Z,28.10
2023-01-19T08:19:47.129Z,30.23
2023-01-19T08:22:13.792Z,28.38
2023-01-19T08:24:40.407Z,30.67
2023-01-19T08:27:09.727Z,25.90
2023-01-19T08:29:36.631Z,29.60
2023-01-19T08:32:03.431Z,28.40
2023-01-19T08:34:31.040Z,25.42
2023-01-19T08:36:58.404Z,27.45
2023-01-19T08:39:25.435Z,24.60
2023-01-19T08:41:52.479Z,20.38
2023-01-19T08:44:19.465Z,24.58
2023-01-19T08:46:46.216Z,26.92
2023-01-19T08:49:12.979Z,25.52
2023-01-19T08:51:39.676Z,21.77
2023-01-19T08:54:06.598Z,22.55
2023-01-19T08:56:33.280Z,20.75
2023-01-19T08:59:09.251Z,20.25
2023-01-19T09:01:37.332Z,20.02
2023-01-19T09:04:04.324Z,20.30
2023-01-19T09:06:31.061Z,20.15
2023-01-19T09:08:57.985Z,23.75
2023-01-19T09:11:24.738Z,20.40
2023-01-19T09:13:51.447Z,21.08
2023-01-19T09:16:18.462Z,26.92
2023-01-19T09:18:46.035Z,22.52
2023-01-19T09:21:13.891Z,29.75
2023-01-19T09:23:40.574Z,24.33
2023-01-19T09:26:07.540Z,20.48
2023-01-19T09:28:34.700Z,18.70
2023-01-19T09:31:05.940Z,23.58
2023-01-19T09:33:33.181Z,25.58
2023-01-19T09:36:00.020Z,22.55
2023-01-19T09:38:27.014Z,22.33
2023-01-19T09:40:56.049Z,24.10
2023-01-19T09:43:28.531Z,21.15
2023-01-19T09:45:57.500Z,25.35
2023-01-19T09:48:33.042Z,24.15
2023-01-19T09:51:04.299Z,22.17
2023-01-19T09:53:40.517Z,20.52
2023-01-19T09:56:12.427Z,25.10
2023-01-19T09:58:39.733Z,26.90
2023-01-19T10:01:34.573Z,21.00
2023-01-19T10:04:29.883Z,20.10
2023-01-19T10:07:11.205Z,20.05
2023-01-19T10:09:57.123Z,21.75
2023-01-19T10:12:59.676Z,26.15
2023-01-19T10:16:03.892Z,24.15
2023-01-19T10:18:51.880Z,21.10
2023-01-19T10:21:28.992Z,17.27
2023-01-19T10:23:59.740Z,41.85
2023-01-19T10:26:37.064Z,18.70
2023-01-19T10:29:37.572Z,18.55
2023-01-19T10:32:26.233Z,21.75
2023-01-19T10:34:54.115Z,21.65
2023-01-19T10:37:31.690Z,20.92
2023-01-19T10:40:11.135Z,16.98
2023-01-19T10:42:40.419Z,21.13
2023-01-19T10:45:18.239Z,21.63
2023-01-19T10:47:47.058Z,19.15
2023-01-19T10:50:26.824Z,17.13
2023-01-19T10:52:57.038Z,13.40
2023-01-19T10:55:35.591Z,16.25
2023-01-19T10:58:02.331Z,17.33
2023-01-19T11:00:33.295Z,14.55
2023-01-19T11:03:00.997Z,15.07
2023-01-19T11:05:33.001Z,13.82
2023-01-19T11:07:59.871Z,16.35
2023-01-19T11:10:29.075Z,9.38
2023-01-19T11:12:58.800Z,13.85
2023-01-19T11:15:31.623Z,9.52
2023-01-19T11:17:58.964Z,12.43
2023-01-19T11:20:50.597Z,10.98
2023-01-19T11:23:29.411Z,9.52
2023-01-19T11:26:01.510Z,12.60
2023-01-19T11:28:30.143Z,8.18
2023-01-19T11:31:15.160Z,9.20
2023-01-19T11:33:53.376Z,8.52
2023-01-19T11:36:21.755Z,12.05
2023-01-19T11:38:54.254Z,11.48
2023-01-19T11:41:34.276Z,8.43
2023-01-19T11:44:28.507Z,8.82
2023-01-19T11:47:03.259Z,10.35
2023-01-19T11:50:04.456Z,8.63
2023-01-19T11:52:49.886Z,12.32
2023-01-19T11:55:41.756Z,7.97
2023-01-19T11:58:15.453Z,11.70
2023-01-19T12:00:57.435Z,6.80
2023-01-19T12:03:47.222Z,8.50
2023-01-19T12:06:25.500Z,12.02
2023-01-19T12:08:54.348Z,10.35
2023-01-19T12:11:31.529Z,16.52
2023-01-19T12:13:59.045Z,9.15
2023-01-19T12:16:29.511Z,10.15
2023-01-19T12:19:20.958Z,11.27
2023-01-19T12:21:48.422Z,10.73
2023-01-19T12:24:42.313Z,10.13
2023-01-19T12:27:42.519Z,10.95
2023-01-19T12:30:25.158Z,9.90
2023-01-19T12:32:52.117Z,8.65
2023-01-19T12:35:56.874Z,7.75
2023-01-19T12:38:58.813Z,7.97
2023-01-19T12:41:34.234Z,7.47
2023-01-19T12:44:14.548Z,9.57
2023-01-19T12:46:54.364Z,8.57
2023-01-19T12:49:32.352Z,9.70
2023-01-19T12:52:22.161Z,8.10
2023-01-19T12:55:07.420Z,9.18
2023-01-19T12:57:59.651Z,9.60
2023-01-19T13:00:26.290Z,9.02
2023-01-19T13:03:15.408Z,7.95
2023-01-19T13:05:42.138Z,7.47
2023-01-19T13:08:09.031Z,8.27
2023-01-19T13:11:02.945Z,9.02
2023-01-19T13:13:58.597Z,9.07
2023-01-19T13:16:28.121Z,8.95
2023-01-19T13:18:56.080Z,13.35
2023-01-19T13:21:36.719Z,12.88
2023-01-19T13:24:22.460Z,14.52
2023-01-19T13:26:49.182Z,9.93
2023-01-19T13:29:35.254Z,9.40
2023-01-19T13:32:12.939Z,8.38
2023-01-19T13:34:43.923Z,8.00
2023-01-19T13:37:20.290Z,8.40
2023-01-19T13:39:50.058Z,6.90
2023-01-19T13:42:39.270Z,12.02
2023-01-19T13:45:25.160Z,8.45
2023-01-19T13:47:53.339Z,6.28
2023-01-19T13:50:24.371Z,7.00
2023-01-19T13:52:53.890Z,6.90
2023-01-19T13:55:21.068Z,8.35
2023-01-19T13:57:49.532Z,7.20
2023-01-19T14:00:24.535Z,7.60
2023-01-19T14:03:21.598Z,6.00
2023-01-19T14:05:51.766Z,8.85
2023-01-19T14:08:20.172Z,7.93
2023-01-19T14:11:02.263Z,12.45
2023-01-19T14:13:43.166Z,11.93
2023-01-19T14:16:25.108Z,8.40
2023-01-19T14:19:03.097Z,10.20
2023-01-19T14:21:40.352Z,8.10
2023-01-19T14:24:09.565Z,13.05
2023-01-19T14:26:44.977Z,21.60
2023-01-19T14:29:32.879Z,13.55
2023-01-19T14:32:14.628Z,16.88
2023-01-19T14:35:04.419Z,11.63
2023-01-19T14:37:37.152Z,7.13
2023-01-19T14:40:08.090Z,10.60
2023-01-19T14:42:42.574Z,9.65
2023-01-19T14:45:37.040Z,12.38
2023-01-19T14:48:20.444Z,13.75
2023-01-19T14:51:01.998Z,31.50
2023-01-19T14:53:37.026Z,106.47
2023-01-19T14:56:06.060Z,88.68
2023-01-19T14:58:34.240Z,25.08
2023-01-19T15:01:01.445Z,15.02
2023-01-19T15:03:44.781Z,11.43
2023-01-19T15:06:21.205Z,10.48
2023-01-19T15:08:49.985Z,10.45
2023-01-19T15:11:35.329Z,18.15
2023-01-19T15:14:02.750Z,13.57
2023-01-19T15:16:31.869Z,17.13
2023-01-19T15:18:58.633Z,17.60
2023-01-19T15:21:28.229Z,20.33
2023-01-19T15:23:55.339Z,19.30
2023-01-19T15:26:25.074Z,16.88
2023-01-19T15:28:52.318Z,13.93
2023-01-19T15:31:21.962Z,13.77
2023-01-19T15:33:49.084Z,12.48
2023-01-19T15:36:18.562Z,13.98
2023-01-19T15:38:46.175Z,13.10
2023-01-19T15:41:24.895Z,16.45
2023-01-19T15:43:51.840Z,30.50
2023-01-19T15:46:23.145Z,26.50
2023-01-19T15:48:50.849Z,19.65
2023-01-19T15:51:25.077Z,20.75
2023-01-19T15:53:52.879Z,21.08
2023-01-19T15:56:34.716Z,17.98
2023-01-19T15:59:01.732Z,15.07
2023-01-19T16:01:33.791Z,27.15
2023-01-19T16:04:06.055Z,15.73
2023-01-19T16:06:32.801Z,20.73
2023-01-19T16:09:01.202Z,21.80
2023-01-19T16:11:30.873Z,20.60
2023-01-19T16:13:57.665Z,17.13
2023-01-19T16:16:25.871Z,14.50
2023-01-19T16:18:52.614Z,27.35
2023-01-19T16:21:19.483Z,16.33
2023-01-19T16:23:46.487Z,15.75
2023-01-19T16:26:34.121Z,18.98
2023-01-19T16:29:07.778Z,27.75
2023-01-19T16:31:34.514Z,20.70
2023-01-19T16:34:01.532Z,23.17
2023-01-19T16:36:30.694Z,23.20
2023-01-19T16:39:03.009Z,16.92
2023-01-19T16:41:29.727Z,14.55
2023-01-19T16:43:57.877Z,14.38
2023-01-19T16:46:30.460Z,13.75
2023-01-19T16:49:02.528Z,14.40
2023-01-19T16:51:29.886Z,13.05
2023-01-19T16:53:56.629Z,18.58
2023-01-19T16:56:23.319Z,12.13
2023-01-19T16:58:57.228Z,13.52
2023-01-19T17:01:26.225Z,13.93
2023-01-19T17:03:53.228Z,14.65
2023-01-19T17:06:24.174Z,13.13
2023-01-19T17:08:52.089Z,12.45
2023-01-19T17:11:21.654Z,13.27
2023-01-19T17:13:54.447Z,13.88
2023-01-19T17:16:22.364Z,13.85
2023-01-19T17:18:49.167Z,17.13
2023-01-19T17:21:17.833Z,12.32
2023-01-19T17:23:46.748Z,15.23
2023-01-19T17:26:14.494Z,15.30
2023-01-19T17:28:41.441Z,19.85
2023-01-19T17:31:19.907Z,22.50
2023-01-19T17:33:48.856Z,20.67
2023-01-19T17:36:20.408Z,20.85
2023-01-19T17:38:47.144Z,16.50
2023-01-19T17:41:19.250Z,19.45
2023-01-19T17:43:46.190Z,20.73
2023-01-19T17:46:13.341Z,21.55
2023-01-19T17:48:40.882Z,28.33
2023-01-19T17:51:10.662Z,19.45
2023-01-19T17:53:38.625Z,18.75
2023-01-19T17:56:15.952Z,20.77
2023-01-19T17:58:42.836Z,15.63
2023-01-19T18:01:09.716Z,23.65
2023-01-19T18:03:36.721Z,28.63
2023-01-19T18:06:03.500Z,29.05
2023-01-19T18:08:30.233Z,21.38
2023-01-19T18:10:58.570Z,23.88
2023-01-19T18:13:25.896Z,20.30
2023-01-19T18:16:01.936Z,19.17
2023-01-19T18:20:59.962Z,38.03
2023-01-19T18:23:27.057Z,27.42
2023-01-19T18:26:00.842Z,38.97
2023-01-19T18:28:28.194Z,20.60
2023-01-19T18:30:55.252Z,23.00
2023-01-19T18:33:22.153Z,20.70
2023-01-19T18:35:49.031Z,19.95
2023-01-19T18:38:15.829Z,24.23
2023-01-19T18:40:42.975Z,19.00
2023-01-19T18:43:11.143Z,22.50
2023-01-19T18:45:39.832Z,20.20
2023-01-19T18:48:06.595Z,17.15
2023-01-19T18:50:33.544Z,19.60
2023-01-19T18:53:00.202Z,18.05
2023-01-19T18:55:27.005Z,18.20
2023-01-19T18:57:53.827Z,17.50
2023-01-19T19:00:20.851Z,19.45
2023-01-19T19:02:47.519Z,20.65
2023-01-19T19:05:14.261Z,17.45
2023-01-19T19:07:40.920Z,20.30
2023-01-19T19:10:08.418Z,21.42
2023-01-19T19:12:35.447Z,22.10
2023-01-19T19:15:02.209Z,21.98
2023-01-19T19:17:29.049Z,22.60
2023-01-19T19:19:55.755Z,19.45
2023-01-19T19:22:25.376Z,19.58
2023-01-19T19:24:52.231Z,22.80
2023-01-19T19:27:18.900Z,24.58
2023-01-19T19:29:48.855Z,19.40
2023-01-19T19:32:20.475Z,22.10
2023-01-19T19:34:52.571Z,21.23
2023-01-19T19:37:20.081Z,27.25
2023-01-19T19:39:47.959Z,20.27
2023-01-19T19:42:14.864Z,22.95
2023-01-19T19:44:41.502Z,19.65
2023-01-19T19:47:08.377Z,21.13
2023-01-19T19:49:35.038Z,18.27
2023-01-19T19:52:01.735Z,22.67
2023-01-19T19:54:28.493Z,18.25
2023-01-19T19:56:55.204Z,22.30
2023-01-19T19:59:21.857Z,25.63
2023-01-19T20:01:49.801Z,20.40
2023-01-19T20:04:20.225Z,21.73
2023-01-19T20:06:48.315Z,20.85
2023-01-19T20:09:16.130Z,17.17
2023-01-19T20:11:44.718Z,18.95
2023-01-19T20:14:13.523Z,18.15
2023-01-19T20:16:40.273Z,19.98
2023-01-19T20:19:07.471Z,17.27
2023-01-19T20:21:37.183Z,16.92
2023-01-19T20:24:07.458Z,18.92
2023-01-19T20:26:36.426Z,19.13
2023-01-19T20:29:06.832Z,21.33
2023-01-19T20:31:36.967Z,19.27
2023-01-19T20:34:06.509Z,16.00
2023-01-19T20:36:33.399Z,20.77
2023-01-19T20:39:00.593Z,23.50
2023-01-19T20:41:27.545Z,18.17
2023-01-19T20:43:54.268Z,17.95
2023-01-19T20:46:21.031Z,17.30
2023-01-19T20:48:52.691Z,18.92
2023-01-19T20:51:20.263Z,20.38
2023-01-19T20:53:47.756Z,19.27
2023-01-19T20:56:15.209Z,20.10
2023-01-19T20:58:42.638Z,18.85
2023-01-19T21:01:11.188Z,18.92
2023-01-19T21:03:38.065Z,22.88
2023-01-19T21:06:05.351Z,18.77
2023-01-19T21:08:32.756Z,18.30
2023-01-19T21:10:59.569Z,19.27
2023-01-19T21:13:26.717Z,19.88
2023-01-19T21:15:53.907Z,17.35
2023-01-19T21:18:22.035Z,17.00
2023-01-19T21:20:49.266Z,20.52
2023-01-19T21:23:16.234Z,16.33
2023-01-19T21:25:54.745Z,17.98
2023-01-19T21:28:22.911Z,15.95
2023-01-19T21:30:50.321Z,19.13
2023-01-19T21:33:17.151Z,18.55
2023-01-19T21:35:55.609Z,17.20
2023-01-19T21:38:24.271Z,20.45
2023-01-19T21:40:51.147Z,18.95
2023-01-19T21:43:19.897Z,21.25
2023-01-19T21:45:47.725Z,21.40
2023-01-19T21:48:15.547Z,19.75
2023-01-19T21:50:42.423Z,21.10
2023-01-19T21:53:11.238Z,20.25
2023-01-19T21:55:43.010Z,18.75
2023-01-19T21:58:09.678Z,18.20
2023-01-19T22:00:36.381Z,18.13
2023-01-19T22:03:04.640Z,18.30
2023-01-19T22:05:36.744Z,16.25
2023-01-19T22:08:04.635Z,20.35
2023-01-19T22:10:31.389Z,17.05
2023-01-19T22:12:58.056Z,18.63
2023-01-19T22:15:24.852Z,24.75
2023-01-19T22:17:51.509Z,22.33
2023-01-19T22:20:18.331Z,24.13
2023-01-19T22:22:45.046Z,19.23
2023-01-19T22:25:11.982Z,20.00
2023-01-19T22:27:38.985Z,20.80
2023-01-19T22:30:06.288Z,17.98
2023-01-19T22:32:32.952Z,19.35
2023-01-19T22:34:59.648Z,21.75
2023-01-19T22:37:26.287Z,19.67
2023-01-19T22:39:53.411Z,18.73
2023-01-19T22:42:20.096Z,17.92
2023-01-19T22:44:46.875Z,17.63
2023-01-19T22:47:13.918Z,20.65
2023-01-19T22:49:40.762Z,21.27
2023-01-19T22:52:07.611Z,19.35
2023-01-19T22:54:34.305Z,20.33
2023-01-19T22:57:01.031Z,16.52
2023-01-19T22:59:27.801Z,23.45
2023-01-19T23:01:54.614Z,25.25
2023-01-19T23:04:21.405Z,18.90
2023-01-19T23:06:50.671Z,17.98
2023-01-19T23:09:18.528Z,17.02
2023-01-19T23:11:50.418Z,19.90
2023-01-19T23:14:20.716Z,19.77
2023-01-19T23:16:47.589Z,22.38
2023-01-19T23:19:17.073Z,22.48
2023-01-19T23:21:44.342Z,18.83
2023-01-19T23:24:11.380Z,20.33
2023-01-19T23:26:38.514Z,19.05
2023-01-19T23:29:12.680Z,22.27
2023-01-19T23:31:43.243Z,17.88
2023-01-19T23:34:11.130Z,24.45
2023-01-19T23:36:39.938Z,18.52
2023-01-19T23:39:19.092Z,22.45
2023-01-19T23:41:46.097Z,17.23
2023-01-19T23:44:12.871Z,20.63
2023-01-19T23:46:39.545Z,20.02
2023-01-19T23:49:06.338Z,18.05
2023-01-19T23:51:33.923Z,21.85
2023-01-19T23:54:01.247Z,17.83
2023-01-19T23:56:33.530Z,18.38
2023-01-19T23:59:08.500Z,19.17
